sensor_id;sensor_type;location;lat;lon;timestamp;P1;durP1;ratioP1;P2;durP2;ratioP2
5811;SDS011;2932;52.400;9.558;2022-08-19T00:00:03;6.45;;;4.15;;
5811;SDS011;2932;52.400;9.558;2022-08-19T00:02:32;4.43;;;3.90;;
5811;SDS011;2932;52.400;9.558;2022-08-19T00:04:58;4.53;;;4.07;;
5811;SDS011;2932;52.400;9.558;2022-08-19T00:07:23;5.38;;;3.95;;
5811;SDS011;2932;52.400;9.558;2022-08-19T00:09:49;5.70;;;3.95;;
5811;SDS011;2932;52.400;9.558;2022-08-19T00:12:14;4.78;;;3.85;;
5811;SDS011;2932;52.400;9.558;2022-08-19T00:14:40;5.88;;;4.28;;
5811;SDS011;2932;52.400;9.558;2022-08-19T00:17:06;6.07;;;4.43;;
5811;SDS011;2932;52.400;9.558;2022-08-19T00:19:33;4.55;;;3.95;;
5811;SDS011;2932;52.400;9.558;2022-08-19T00:22:00;6.38;;;3.90;;
5811;SDS011;2932;52.400;9.558;2022-08-19T00:24:25;6.35;;;4.32;;
5811;SDS011;2932;52.400;9.558;2022-08-19T00:26:52;5.53;;;4.35;;
5811;SDS011;2932;52.400;9.558;2022-08-19T00:29:19;6.53;;;4.32;;
5811;SDS011;2932;52.400;9.558;2022-08-19T00:31:46;5.93;;;4.35;;
5811;SDS011;2932;52.400;9.558;2022-08-19T00:34:12;7.25;;;5.03;;
5811;SDS011;2932;52.400;9.558;2022-08-19T00:36:41;5.18;;;4.45;;
5811;SDS011;2932;52.400;9.558;2022-08-19T00:39:07;4.78;;;4.28;;
5811;SDS011;2932;52.400;9.558;2022-08-19T00:41:33;4.57;;;4.18;;
5811;SDS011;2932;52.400;9.558;2022-08-19T00:46:52;5.85;;;4.32;;
5811;SDS011;2932;52.400;9.558;2022-08-19T00:52:06;4.68;;;4.28;;
5811;SDS011;2932;52.400;9.558;2022-08-19T00:54:38;8.32;;;4.45;;
5811;SDS011;2932;52.400;9.558;2022-08-19T00:57:05;8.98;;;4.72;;
5811;SDS011;2932;52.400;9.558;2022-08-19T00:59:34;6.18;;;4.28;;
5811;SDS011;2932;52.400;9.558;2022-08-19T01:02:02;5.70;;;4.50;;
5811;SDS011;2932;52.400;9.558;2022-08-19T01:04:28;6.10;;;4.78;;
5811;SDS011;2932;52.400;9.558;2022-08-19T01:06:55;6.25;;;4.75;;
5811;SDS011;2932;52.400;9.558;2022-08-19T01:09:22;6.13;;;4.88;;
5811;SDS011;2932;52.400;9.558;2022-08-19T01:11:47;5.60;;;4.28;;
5811;SDS011;2932;52.400;9.558;2022-08-19T01:14:13;6.90;;;4.65;;
5811;SDS011;2932;52.400;9.558;2022-08-19T01:16:39;6.90;;;4.55;;
5811;SDS011;2932;52.400;9.558;2022-08-19T01:19:09;6.45;;;5.00;;
5811;SDS011;2932;52.400;9.558;2022-08-19T01:21:52;6.97;;;4.30;;
5811;SDS011;2932;52.400;9.558;2022-08-19T01:24:24;5.68;;;4.40;;
5811;SDS011;2932;52.400;9.558;2022-08-19T01:26:50;5.00;;;4.10;;
5811;SDS011;2932;52.400;9.558;2022-08-19T01:29:15;7.82;;;4.28;;
5811;SDS011;2932;52.400;9.558;2022-08-19T01:31:40;6.35;;;4.20;;
5811;SDS011;2932;52.400;9.558;2022-08-19T01:34:06;6.10;;;4.15;;
5811;SDS011;2932;52.400;9.558;2022-08-19T01:36:35;6.05;;;4.35;;
5811;SDS011;2932;52.400;9.558;2022-08-19T01:39:05;5.85;;;4.40;;
5811;SDS011;2932;52.400;9.558;2022-08-19T01:41:32;8.18;;;4.03;;
5811;SDS011;2932;52.400;9.558;2022-08-19T01:43:58;6.13;;;3.80;;
5811;SDS011;2932;52.400;9.558;2022-08-19T01:46:24;6.40;;;4.30;;
5811;SDS011;2932;52.400;9.558;2022-08-19T01:48:49;4.90;;;3.88;;
5811;SDS011;2932;52.400;9.558;2022-08-19T01:51:15;5.80;;;3.95;;
5811;SDS011;2932;52.400;9.558;2022-08-19T01:53:40;4.75;;;3.88;;
5811;SDS011;2932;52.400;9.558;2022-08-19T01:56:06;5.03;;;3.88;;
5811;SDS011;2932;52.400;9.558;2022-08-19T01:58:38;4.38;;;3.97;;
5811;SDS011;2932;52.400;9.558;2022-08-19T02:01:14;4.47;;;3.75;;
5811;SDS011;2932;52.400;9.558;2022-08-19T02:03:39;4.45;;;3.65;;
5811;SDS011;2932;52.400;9.558;2022-08-19T02:06:05;4.60;;;3.72;;
5811;SDS011;2932;52.400;9.558;2022-08-19T02:08:33;5.75;;;3.70;;
5811;SDS011;2932;52.400;9.558;2022-08-19T02:11:01;4.80;;;4.05;;
5811;SDS011;2932;52.400;9.558;2022-08-19T02:13:28;5.45;;;3.72;;
5811;SDS011;2932;52.400;9.558;2022-08-19T02:15:53;5.80;;;3.83;;
5811;SDS011;2932;52.400;9.558;2022-08-19T02:18:19;6.95;;;3.90;;
5811;SDS011;2932;52.400;9.558;2022-08-19T02:20:44;5.55;;;4.13;;
5811;SDS011;2932;52.400;9.558;2022-08-19T02:23:12;6.53;;;4.28;;
5811;SDS011;2932;52.400;9.558;2022-08-19T02:25:38;5.07;;;3.80;;
5811;SDS011;2932;52.400;9.558;2022-08-19T02:28:04;4.72;;;4.05;;
5811;SDS011;2932;52.400;9.558;2022-08-19T02:30:30;3.83;;;3.50;;
5811;SDS011;2932;52.400;9.558;2022-08-19T02:32:56;5.00;;;3.80;;
5811;SDS011;2932;52.400;9.558;2022-08-19T02:35:22;5.78;;;4.20;;
5811;SDS011;2932;52.400;9.558;2022-08-19T02:37:47;6.07;;;3.83;;
5811;SDS011;2932;52.400;9.558;2022-08-19T02:40:32;6.38;;;4.57;;
5811;SDS011;2932;52.400;9.558;2022-08-19T02:43:02;4.45;;;3.90;;
5811;SDS011;2932;52.400;9.558;2022-08-19T02:45:32;5.60;;;4.00;;
5811;SDS011;2932;52.400;9.558;2022-08-19T02:48:01;5.93;;;4.32;;
5811;SDS011;2932;52.400;9.558;2022-08-19T02:50:27;4.18;;;3.60;;
5811;SDS011;2932;52.400;9.558;2022-08-19T02:52:53;6.43;;;4.40;;
5811;SDS011;2932;52.400;9.558;2022-08-19T02:55:18;6.30;;;4.07;;
5811;SDS011;2932;52.400;9.558;2022-08-19T02:57:43;4.90;;;3.75;;
5811;SDS011;2932;52.400;9.558;2022-08-19T03:00:09;4.72;;;3.70;;
5811;SDS011;2932;52.400;9.558;2022-08-19T03:02:37;4.40;;;4.00;;
5811;SDS011;2932;52.400;9.558;2022-08-19T03:05:03;5.28;;;3.55;;
5811;SDS011;2932;52.400;9.558;2022-08-19T03:07:29;5.47;;;4.20;;
5811;SDS011;2932;52.400;9.558;2022-08-19T03:09:55;4.45;;;3.97;;
5811;SDS011;2932;52.400;9.558;2022-08-19T03:12:21;6.40;;;4.20;;
5811;SDS011;2932;52.400;9.558;2022-08-19T03:14:46;4.55;;;4.15;;
5811;SDS011;2932;52.400;9.558;2022-08-19T03:17:12;6.72;;;4.30;;
5811;SDS011;2932;52.400;9.558;2022-08-19T03:19:38;4.80;;;4.00;;
5811;SDS011;2932;52.400;9.558;2022-08-19T03:22:03;8.52;;;4.57;;
5811;SDS011;2932;52.400;9.558;2022-08-19T03:24:29;3.90;;;3.50;;
5811;SDS011;2932;52.400;9.558;2022-08-19T03:26:55;5.43;;;4.30;;
5811;SDS011;2932;52.400;9.558;2022-08-19T03:29:25;4.25;;;3.63;;
5811;SDS011;2932;52.400;9.558;2022-08-19T03:31:52;6.28;;;4.15;;
5811;SDS011;2932;52.400;9.558;2022-08-19T03:34:19;4.10;;;3.50;;
5811;SDS011;2932;52.400;9.558;2022-08-19T03:36:53;5.40;;;3.75;;
5811;SDS011;2932;52.400;9.558;2022-08-19T03:39:20;5.10;;;3.85;;
5811;SDS011;2932;52.400;9.558;2022-08-19T03:41:46;6.15;;;4.03;;
5811;SDS011;2932;52.400;9.558;2022-08-19T03:44:16;7.03;;;3.42;;
5811;SDS011;2932;52.400;9.558;2022-08-19T03:46:45;4.32;;;3.30;;
5811;SDS011;2932;52.400;9.558;2022-08-19T03:49:16;4.00;;;3.47;;
5811;SDS011;2932;52.400;9.558;2022-08-19T03:51:42;6.10;;;3.38;;
5811;SDS011;2932;52.400;9.558;2022-08-19T03:54:09;4.43;;;3.47;;
5811;SDS011;2932;52.400;9.558;2022-08-19T03:56:37;5.45;;;3.88;;
5811;SDS011;2932;52.400;9.558;2022-08-19T03:59:04;6.72;;;3.42;;
5811;SDS011;2932;52.400;9.558;2022-08-19T04:01:31;5.68;;;3.58;;
5811;SDS011;2932;52.400;9.558;2022-08-19T04:03:57;5.45;;;3.13;;
5811;SDS011;2932;52.400;9.558;2022-08-19T04:06:24;7.03;;;3.25;;
5811;SDS011;2932;52.400;9.558;2022-08-19T04:08:56;4.53;;;3.80;;
5811;SDS011;2932;52.400;9.558;2022-08-19T04:11:24;3.38;;;3.08;;
5811;SDS011;2932;52.400;9.558;2022-08-19T04:13:52;4.93;;;3.20;;
5811;SDS011;2932;52.400;9.558;2022-08-19T04:16:18;5.57;;;3.22;;
5811;SDS011;2932;52.400;9.558;2022-08-19T04:18:45;5.53;;;3.67;;
5811;SDS011;2932;52.400;9.558;2022-08-19T04:21:15;5.07;;;4.00;;
5811;SDS011;2932;52.400;9.558;2022-08-19T04:23:44;3.90;;;3.50;;
5811;SDS011;2932;52.400;9.558;2022-08-19T04:26:18;3.95;;;3.55;;
5811;SDS011;2932;52.400;9.558;2022-08-19T04:28:52;4.82;;;3.90;;
5811;SDS011;2932;52.400;9.558;2022-08-19T04:31:21;6.43;;;4.60;;
5811;SDS011;2932;52.400;9.558;2022-08-19T04:33:51;6.45;;;4.10;;
5811;SDS011;2932;52.400;9.558;2022-08-19T04:36:22;6.65;;;4.72;;
5811;SDS011;2932;52.400;9.558;2022-08-19T04:38:53;7.38;;;4.45;;
5811;SDS011;2932;52.400;9.558;2022-08-19T04:41:23;4.72;;;4.07;;
5811;SDS011;2932;52.400;9.558;2022-08-19T04:44:07;5.97;;;3.90;;
5811;SDS011;2932;52.400;9.558;2022-08-19T04:46:34;6.18;;;4.75;;
5811;SDS011;2932;52.400;9.558;2022-08-19T04:48:59;6.40;;;4.63;;
5811;SDS011;2932;52.400;9.558;2022-08-19T04:51:26;6.25;;;4.78;;
5811;SDS011;2932;52.400;9.558;2022-08-19T04:53:52;7.25;;;4.68;;
5811;SDS011;2932;52.400;9.558;2022-08-19T04:56:18;5.68;;;4.78;;
5811;SDS011;2932;52.400;9.558;2022-08-19T04:58:51;6.38;;;5.00;;
5811;SDS011;2932;52.400;9.558;2022-08-19T05:01:19;7.40;;;5.55;;
5811;SDS011;2932;52.400;9.558;2022-08-19T05:03:47;10.13;;;6.93;;
5811;SDS011;2932;52.400;9.558;2022-08-19T05:06:13;10.63;;;7.68;;
5811;SDS011;2932;52.400;9.558;2022-08-19T05:08:40;13.27;;;9.00;;
5811;SDS011;2932;52.400;9.558;2022-08-19T05:11:09;13.73;;;7.97;;
5811;SDS011;2932;52.400;9.558;2022-08-19T05:13:37;12.80;;;9.55;;
5811;SDS011;2932;52.400;9.558;2022-08-19T05:16:03;10.13;;;8.63;;
5811;SDS011;2932;52.400;9.558;2022-08-19T05:18:28;16.70;;;9.38;;
5811;SDS011;2932;52.400;9.558;2022-08-19T05:21:14;11.48;;;9.45;;
5811;SDS011;2932;52.400;9.558;2022-08-19T05:24:00;15.13;;;9.50;;
5811;SDS011;2932;52.400;9.558;2022-08-19T05:26:27;14.80;;;11.00;;
5811;SDS011;2932;52.400;9.558;2022-08-19T05:28:53;12.00;;;9.57;;
5811;SDS011;2932;52.400;9.558;2022-08-19T05:31:19;14.60;;;10.25;;
5811;SDS011;2932;52.400;9.558;2022-08-19T05:33:45;14.07;;;10.73;;
5811;SDS011;2932;52.400;9.558;2022-08-19T05:36:10;12.18;;;9.27;;
5811;SDS011;2932;52.400;9.558;2022-08-19T05:38:36;15.73;;;10.15;;
5811;SDS011;2932;52.400;9.558;2022-08-19T05:41:12;12.35;;;10.05;;
5811;SDS011;2932;52.400;9.558;2022-08-19T05:43:38;12.77;;;10.23;;
5811;SDS011;2932;52.400;9.558;2022-08-19T05:46:04;14.50;;;9.70;;
5811;SDS011;2932;52.400;9.558;2022-08-19T05:48:32;12.43;;;9.43;;
5811;SDS011;2932;52.400;9.558;2022-08-19T05:51:02;13.32;;;10.13;;
5811;SDS011;2932;52.400;9.558;2022-08-19T05:53:34;14.63;;;10.52;;
5811;SDS011;2932;52.400;9.558;2022-08-19T05:56:10;13.43;;;10.68;;
5811;SDS011;2932;52.400;9.558;2022-08-19T05:58:37;15.07;;;9.93;;
5811;SDS011;2932;52.400;9.558;2022-08-19T06:01:04;12.05;;;10.43;;
5811;SDS011;2932;52.400;9.558;2022-08-19T06:03:35;14.63;;;10.55;;
5811;SDS011;2932;52.400;9.558;2022-08-19T06:06:02;13.88;;;9.75;;
5811;SDS011;2932;52.400;9.558;2022-08-19T06:08:32;12.85;;;9.73;;
5811;SDS011;2932;52.400;9.558;2022-08-19T06:10:58;11.05;;;9.15;;
5811;SDS011;2932;52.400;9.558;2022-08-19T06:14:00;9.15;;;8.25;;
5811;SDS011;2932;52.400;9.558;2022-08-19T06:16:29;9.82;;;7.85;;
5811;SDS011;2932;52.400;9.558;2022-08-19T06:18:56;8.52;;;7.07;;
5811;SDS011;2932;52.400;9.558;2022-08-19T06:21:25;10.25;;;8.25;;
5811;SDS011;2932;52.400;9.558;2022-08-19T06:23:53;10.20;;;7.68;;
5811;SDS011;2932;52.400;9.558;2022-08-19T06:26:19;9.23;;;7.32;;
5811;SDS011;2932;52.400;9.558;2022-08-19T06:28:46;9.70;;;7.43;;
5811;SDS011;2932;52.400;9.558;2022-08-19T06:31:15;10.57;;;8.15;;
5811;SDS011;2932;52.400;9.558;2022-08-19T06:33:44;9.57;;;7.78;;
5811;SDS011;2932;52.400;9.558;2022-08-19T06:36:23;11.32;;;9.00;;
5811;SDS011;2932;52.400;9.558;2022-08-19T06:38:58;9.13;;;7.78;;
5811;SDS011;2932;52.400;9.558;2022-08-19T06:41:46;9.13;;;6.80;;
5811;SDS011;2932;52.400;9.558;2022-08-19T06:44:13;10.07;;;7.65;;
5811;SDS011;2932;52.400;9.558;2022-08-19T06:46:39;8.63;;;7.10;;
5811;SDS011;2932;52.400;9.558;2022-08-19T06:49:06;9.32;;;7.13;;
5811;SDS011;2932;52.400;9.558;2022-08-19T06:51:35;7.53;;;6.50;;
5811;SDS011;2932;52.400;9.558;2022-08-19T06:54:01;8.35;;;6.82;;
5811;SDS011;2932;52.400;9.558;2022-08-19T06:56:28;7.25;;;6.38;;
5811;SDS011;2932;52.400;9.558;2022-08-19T06:58:58;7.22;;;5.95;;
5811;SDS011;2932;52.400;9.558;2022-08-19T07:01:25;5.30;;;4.85;;
5811;SDS011;2932;52.400;9.558;2022-08-19T07:03:51;6.65;;;4.85;;
5811;SDS011;2932;52.400;9.558;2022-08-19T07:06:17;5.38;;;4.20;;
5811;SDS011;2932;52.400;9.558;2022-08-19T07:08:45;6.03;;;4.13;;
5811;SDS011;2932;52.400;9.558;2022-08-19T07:11:12;4.85;;;3.13;;
5811;SDS011;2932;52.400;9.558;2022-08-19T07:13:39;4.38;;;3.45;;
5811;SDS011;2932;52.400;9.558;2022-08-19T07:16:09;4.63;;;3.63;;
5811;SDS011;2932;52.400;9.558;2022-08-19T07:18:37;4.95;;;4.43;;
5811;SDS011;2932;52.400;9.558;2022-08-19T07:21:14;4.03;;;3.20;;
5811;SDS011;2932;52.400;9.558;2022-08-19T07:23:53;4.63;;;4.18;;
5811;SDS011;2932;52.400;9.558;2022-08-19T07:26:21;5.55;;;3.58;;
5811;SDS011;2932;52.400;9.558;2022-08-19T07:28:53;4.10;;;3.53;;
5811;SDS011;2932;52.400;9.558;2022-08-19T07:31:20;6.93;;;4.82;;
5811;SDS011;2932;52.400;9.558;2022-08-19T07:33:47;6.85;;;5.50;;
5811;SDS011;2932;52.400;9.558;2022-08-19T07:36:17;8.38;;;5.88;;
5811;SDS011;2932;52.400;9.558;2022-08-19T07:38:45;7.60;;;5.35;;
5811;SDS011;2932;52.400;9.558;2022-08-19T07:41:14;8.20;;;6.13;;
5811;SDS011;2932;52.400;9.558;2022-08-19T07:43:46;7.22;;;6.30;;
5811;SDS011;2932;52.400;9.558;2022-08-19T07:46:13;5.70;;;4.72;;
5811;SDS011;2932;52.400;9.558;2022-08-19T07:48:39;9.20;;;4.72;;
5811;SDS011;2932;52.400;9.558;2022-08-19T07:51:07;8.18;;;5.63;;
5811;SDS011;2932;52.400;9.558;2022-08-19T07:53:34;6.13;;;4.97;;
5811;SDS011;2932;52.400;9.558;2022-08-19T07:56:02;7.85;;;5.97;;
5811;SDS011;2932;52.400;9.558;2022-08-19T07:58:30;8.05;;;6.25;;
5811;SDS011;2932;52.400;9.558;2022-08-19T08:01:00;6.45;;;5.00;;
5811;SDS011;2932;52.400;9.558;2022-08-19T08:03:28;7.32;;;5.95;;
5811;SDS011;2932;52.400;9.558;2022-08-19T08:06:12;6.78;;;5.32;;
5811;SDS011;2932;52.400;9.558;2022-08-19T08:08:58;5.05;;;4.55;;
5811;SDS011;2932;52.400;9.558;2022-08-19T08:11:46;5.55;;;5.05;;
5811;SDS011;2932;52.400;9.558;2022-08-19T08:14:19;8.43;;;5.93;;
5811;SDS011;2932;52.400;9.558;2022-08-19T08:16:47;5.10;;;4.63;;
5811;SDS011;2932;52.400;9.558;2022-08-19T08:19:16;4.72;;;4.30;;
5811;SDS011;2932;52.400;9.558;2022-08-19T08:21:43;8.13;;;5.07;;
5811;SDS011;2932;52.400;9.558;2022-08-19T08:24:09;7.03;;;4.50;;
5811;SDS011;2932;52.400;9.558;2022-08-19T08:26:35;5.78;;;4.78;;
5811;SDS011;2932;52.400;9.558;2022-08-19T08:29:00;4.97;;;4.38;;
5811;SDS011;2932;52.400;9.558;2022-08-19T08:31:26;5.30;;;4.80;;
5811;SDS011;2932;52.400;9.558;2022-08-19T08:33:51;4.53;;;4.05;;
5811;SDS011;2932;52.400;9.558;2022-08-19T08:36:17;4.85;;;3.78;;
5811;SDS011;2932;52.400;9.558;2022-08-19T08:38:43;3.50;;;3.15;;
5811;SDS011;2932;52.400;9.558;2022-08-19T08:43:51;3.58;;;3.28;;
5811;SDS011;2932;52.400;9.558;2022-08-19T08:49:02;3.85;;;3.45;;
5811;SDS011;2932;52.400;9.558;2022-08-19T08:51:36;4.90;;;3.85;;
5811;SDS011;2932;52.400;9.558;2022-08-19T08:54:06;4.40;;;2.92;;
5811;SDS011;2932;52.400;9.558;2022-08-19T08:56:35;3.10;;;2.88;;
5811;SDS011;2932;52.400;9.558;2022-08-19T08:59:16;4.55;;;3.40;;
5811;SDS011;2932;52.400;9.558;2022-08-19T09:01:43;5.00;;;3.00;;
5811;SDS011;2932;52.400;9.558;2022-08-19T09:04:09;4.75;;;3.10;;
5811;SDS011;2932;52.400;9.558;2022-08-19T09:06:49;2.95;;;2.75;;
5811;SDS011;2932;52.400;9.558;2022-08-19T09:09:29;3.55;;;2.60;;
5811;SDS011;2932;52.400;9.558;2022-08-19T09:17:27;2.47;;;1.88;;
5811;SDS011;2932;52.400;9.558;2022-08-19T09:22:32;2.38;;;1.85;;
5811;SDS011;2932;52.400;9.558;2022-08-19T09:24:57;2.58;;;2.13;;
5811;SDS011;2932;52.400;9.558;2022-08-19T09:27:23;2.33;;;1.95;;
5811;SDS011;2932;52.400;9.558;2022-08-19T09:29:50;2.35;;;2.00;;
5811;SDS011;2932;52.400;9.558;2022-08-19T09:32:16;3.15;;;1.92;;
5811;SDS011;2932;52.400;9.558;2022-08-19T09:34:43;2.45;;;1.65;;
5811;SDS011;2932;52.400;9.558;2022-08-19T09:37:09;2.22;;;1.63;;
5811;SDS011;2932;52.400;9.558;2022-08-19T09:39:34;2.60;;;1.55;;
5811;SDS011;2932;52.400;9.558;2022-08-19T09:42:00;3.25;;;1.90;;
5811;SDS011;2932;52.400;9.558;2022-08-19T09:44:28;1.88;;;1.63;;
5811;SDS011;2932;52.400;9.558;2022-08-19T09:46:53;1.98;;;1.70;;
5811;SDS011;2932;52.400;9.558;2022-08-19T09:49:19;3.08;;;1.70;;
5811;SDS011;2932;52.400;9.558;2022-08-19T09:51:51;2.80;;;2.00;;
5811;SDS011;2932;52.400;9.558;2022-08-19T09:54:20;1.65;;;1.52;;
5811;SDS011;2932;52.400;9.558;2022-08-19T09:56:46;3.53;;;2.03;;
5811;SDS011;2932;52.400;9.558;2022-08-19T09:59:12;4.43;;;1.73;;
5811;SDS011;2932;52.400;9.558;2022-08-19T10:01:37;2.30;;;2.00;;
5811;SDS011;2932;52.400;9.558;2022-08-19T10:04:03;2.45;;;1.90;;
5811;SDS011;2932;52.400;9.558;2022-08-19T10:06:33;2.13;;;1.67;;
5811;SDS011;2932;52.400;9.558;2022-08-19T10:09:01;2.40;;;2.10;;
5811;SDS011;2932;52.400;9.558;2022-08-19T10:11:31;1.85;;;1.75;;
5811;SDS011;2932;52.400;9.558;2022-08-19T10:13:57;2.72;;;1.88;;
5811;SDS011;2932;52.400;9.558;2022-08-19T10:16:24;3.75;;;2.30;;
5811;SDS011;2932;52.400;9.558;2022-08-19T10:18:50;2.10;;;1.90;;
5811;SDS011;2932;52.400;9.558;2022-08-19T10:21:18;2.10;;;1.95;;
5811;SDS011;2932;52.400;9.558;2022-08-19T10:23:46;2.38;;;1.85;;
5811;SDS011;2932;52.400;9.558;2022-08-19T10:26:16;2.47;;;1.90;;
5811;SDS011;2932;52.400;9.558;2022-08-19T10:28:44;1.80;;;1.67;;
5811;SDS011;2932;52.400;9.558;2022-08-19T10:31:11;1.83;;;1.70;;
5811;SDS011;2932;52.400;9.558;2022-08-19T10:33:42;2.55;;;1.70;;
5811;SDS011;2932;52.400;9.558;2022-08-19T10:36:09;2.05;;;1.55;;
5811;SDS011;2932;52.400;9.558;2022-08-19T10:38:42;2.13;;;1.45;;
5811;SDS011;2932;52.400;9.558;2022-08-19T10:41:13;1.60;;;1.50;;
5811;SDS011;2932;52.400;9.558;2022-08-19T10:43:41;1.35;;;1.25;;
5811;SDS011;2932;52.400;9.558;2022-08-19T10:46:08;1.65;;;1.52;;
5811;SDS011;2932;52.400;9.558;2022-08-19T10:48:35;1.52;;;1.40;;
5811;SDS011;2932;52.400;9.558;2022-08-19T10:51:00;2.58;;;1.45;;
5811;SDS011;2932;52.400;9.558;2022-08-19T10:53:45;1.73;;;1.30;;
5811;SDS011;2932;52.400;9.558;2022-08-19T10:56:10;2.53;;;1.10;;
5811;SDS011;2932;52.400;9.558;2022-08-19T10:58:54;1.63;;;1.00;;
5811;SDS011;2932;52.400;9.558;2022-08-19T11:01:21;3.40;;;1.30;;
5811;SDS011;2932;52.400;9.558;2022-08-19T11:03:46;1.48;;;1.38;;
5811;SDS011;2932;52.400;9.558;2022-08-19T11:06:12;1.40;;;1.30;;
5811;SDS011;2932;52.400;9.558;2022-08-19T11:08:37;1.40;;;1.25;;
5811;SDS011;2932;52.400;9.558;2022-08-19T11:11:04;2.03;;;1.13;;
5811;SDS011;2932;52.400;9.558;2022-08-19T11:13:31;0.95;;;0.95;;
5811;SDS011;2932;52.400;9.558;2022-08-19T11:16:02;2.88;;;1.38;;
5811;SDS011;2932;52.400;9.558;2022-08-19T11:18:36;2.38;;;1.10;;
5811;SDS011;2932;52.400;9.558;2022-08-19T11:21:27;1.50;;;1.13;;
5811;SDS011;2932;52.400;9.558;2022-08-19T11:23:54;1.65;;;1.00;;
5811;SDS011;2932;52.400;9.558;2022-08-19T11:26:22;2.20;;;1.10;;
5811;SDS011;2932;52.400;9.558;2022-08-19T11:28:49;2.03;;;1.10;;
5811;SDS011;2932;52.400;9.558;2022-08-19T11:31:20;1.55;;;1.27;;
5811;SDS011;2932;52.400;9.558;2022-08-19T11:33:47;2.67;;;1.00;;
5811;SDS011;2932;52.400;9.558;2022-08-19T11:36:16;1.13;;;1.02;;
5811;SDS011;2932;52.400;9.558;2022-08-19T11:38:42;1.55;;;1.20;;
5811;SDS011;2932;52.400;9.558;2022-08-19T11:41:08;1.02;;;0.95;;
5811;SDS011;2932;52.400;9.558;2022-08-19T11:43:34;2.28;;;1.00;;
5811;SDS011;2932;52.400;9.558;2022-08-19T11:46:03;2.65;;;1.00;;
5811;SDS011;2932;52.400;9.558;2022-08-19T11:48:33;1.25;;;0.98;;
5811;SDS011;2932;52.400;9.558;2022-08-19T11:51:02;1.52;;;1.15;;
5811;SDS011;2932;52.400;9.558;2022-08-19T11:53:31;1.02;;;0.90;;
5811;SDS011;2932;52.400;9.558;2022-08-19T11:55:57;0.90;;;0.90;;
5811;SDS011;2932;52.400;9.558;2022-08-19T11:58:22;1.17;;;0.82;;
5811;SDS011;2932;52.400;9.558;2022-08-19T12:00:48;1.00;;;0.90;;
5811;SDS011;2932;52.400;9.558;2022-08-19T12:03:13;1.77;;;0.80;;
5811;SDS011;2932;52.400;9.558;2022-08-19T12:05:39;1.10;;;1.00;;
5811;SDS011;2932;52.400;9.558;2022-08-19T12:08:06;1.30;;;1.20;;
5811;SDS011;2932;52.400;9.558;2022-08-19T12:10:32;1.35;;;0.90;;
5811;SDS011;2932;52.400;9.558;2022-08-19T12:12:59;2.58;;;0.93;;
5811;SDS011;2932;52.400;9.558;2022-08-19T12:15:25;0.80;;;0.80;;
5811;SDS011;2932;52.400;9.558;2022-08-19T12:17:54;1.33;;;1.20;;
5811;SDS011;2932;52.400;9.558;2022-08-19T12:20:21;1.05;;;1.00;;
5811;SDS011;2932;52.400;9.558;2022-08-19T12:22:47;0.95;;;0.93;;
5811;SDS011;2932;52.400;9.558;2022-08-19T12:25:13;1.15;;;1.05;;
5811;SDS011;2932;52.400;9.558;2022-08-19T12:27:39;1.67;;;1.05;;
5811;SDS011;2932;52.400;9.558;2022-08-19T12:30:05;1.85;;;0.90;;
5811;SDS011;2932;52.400;9.558;2022-08-19T12:32:33;1.70;;;1.00;;
5811;SDS011;2932;52.400;9.558;2022-08-19T12:34:58;1.70;;;1.00;;
5811;SDS011;2932;52.400;9.558;2022-08-19T12:37:24;2.08;;;1.00;;
5811;SDS011;2932;52.400;9.558;2022-08-19T12:39:50;0.93;;;0.90;;
5811;SDS011;2932;52.400;9.558;2022-08-19T12:42:15;1.23;;;1.08;;
5811;SDS011;2932;52.400;9.558;2022-08-19T12:44:41;2.15;;;1.20;;
5811;SDS011;2932;52.400;9.558;2022-08-19T12:47:08;1.10;;;0.80;;
5811;SDS011;2932;52.400;9.558;2022-08-19T12:49:36;1.00;;;0.90;;
5811;SDS011;2932;52.400;9.558;2022-08-19T12:52:03;2.45;;;0.80;;
5811;SDS011;2932;52.400;9.558;2022-08-19T12:54:29;1.75;;;0.80;;
5811;SDS011;2932;52.400;9.558;2022-08-19T12:56:56;0.90;;;0.80;;
5811;SDS011;2932;52.400;9.558;2022-08-19T12:59:21;1.20;;;1.10;;
5811;SDS011;2932;52.400;9.558;2022-08-19T13:01:47;0.80;;;0.80;;
5811;SDS011;2932;52.400;9.558;2022-08-19T13:04:13;2.00;;;0.90;;
5811;SDS011;2932;52.400;9.558;2022-08-19T13:06:38;1.23;;;0.77;;
5811;SDS011;2932;52.400;9.558;2022-08-19T13:09:04;1.88;;;0.90;;
5811;SDS011;2932;52.400;9.558;2022-08-19T13:11:30;1.02;;;0.70;;
5811;SDS011;2932;52.400;9.558;2022-08-19T13:13:58;1.25;;;0.95;;
5811;SDS011;2932;52.400;9.558;2022-08-19T13:16:24;2.03;;;0.88;;
5811;SDS011;2932;52.400;9.558;2022-08-19T13:18:51;0.70;;;0.70;;
5811;SDS011;2932;52.400;9.558;2022-08-19T13:21:17;1.55;;;1.13;;
5811;SDS011;2932;52.400;9.558;2022-08-19T13:23:44;1.10;;;1.00;;
5811;SDS011;2932;52.400;9.558;2022-08-19T13:26:11;1.65;;;0.80;;
5811;SDS011;2932;52.400;9.558;2022-08-19T13:28:37;0.70;;;0.70;;
5811;SDS011;2932;52.400;9.558;2022-08-19T13:31:23;0.90;;;0.77;;
5811;SDS011;2932;52.400;9.558;2022-08-19T13:34:08;1.30;;;1.00;;
5811;SDS011;2932;52.400;9.558;2022-08-19T13:36:34;1.25;;;0.80;;
5811;SDS011;2932;52.400;9.558;2022-08-19T13:39:00;0.70;;;0.70;;
5811;SDS011;2932;52.400;9.558;2022-08-19T13:41:26;1.35;;;0.95;;
5811;SDS011;2932;52.400;9.558;2022-08-19T13:43:52;1.25;;;0.85;;
5811;SDS011;2932;52.400;9.558;2022-08-19T13:46:19;1.13;;;1.00;;
5811;SDS011;2932;52.400;9.558;2022-08-19T13:48:45;0.80;;;0.80;;
5811;SDS011;2932;52.400;9.558;2022-08-19T13:51:11;1.52;;;0.88;;
5811;SDS011;2932;52.400;9.558;2022-08-19T13:53:37;2.75;;;1.15;;
5811;SDS011;2932;52.400;9.558;2022-08-19T13:56:07;2.00;;;0.70;;
5811;SDS011;2932;52.400;9.558;2022-08-19T13:58:34;1.05;;;0.98;;
5811;SDS011;2932;52.400;9.558;2022-08-19T14:00:59;5.80;;;0.80;;
5811;SDS011;2932;52.400;9.558;2022-08-19T14:03:25;2.05;;;0.90;;
5811;SDS011;2932;52.400;9.558;2022-08-19T14:05:51;1.70;;;0.85;;
5811;SDS011;2932;52.400;9.558;2022-08-19T14:08:17;0.80;;;0.80;;
5811;SDS011;2932;52.400;9.558;2022-08-19T14:10:43;1.95;;;1.20;;
5811;SDS011;2932;52.400;9.558;2022-08-19T14:13:16;1.63;;;0.90;;
5811;SDS011;2932;52.400;9.558;2022-08-19T14:15:45;1.55;;;1.00;;
5811;SDS011;2932;52.400;9.558;2022-08-19T14:18:12;0.70;;;0.65;;
5811;SDS011;2932;52.400;9.558;2022-08-19T14:20:38;0.90;;;0.90;;
5811;SDS011;2932;52.400;9.558;2022-08-19T14:23:04;0.90;;;0.90;;
5811;SDS011;2932;52.400;9.558;2022-08-19T14:25:32;3.28;;;1.00;;
5811;SDS011;2932;52.400;9.558;2022-08-19T14:27:59;1.88;;;1.00;;
5811;SDS011;2932;52.400;9.558;2022-08-19T14:30:26;1.45;;;1.10;;
5811;SDS011;2932;52.400;9.558;2022-08-19T14:32:54;2.05;;;0.90;;
5811;SDS011;2932;52.400;9.558;2022-08-19T14:35:21;1.10;;;0.80;;
5811;SDS011;2932;52.400;9.558;2022-08-19T14:37:47;1.77;;;0.73;;
5811;SDS011;2932;52.400;9.558;2022-08-19T14:40:15;1.75;;;0.90;;
5811;SDS011;2932;52.400;9.558;2022-08-19T14:42:42;1.85;;;1.02;;
5811;SDS011;2932;52.400;9.558;2022-08-19T14:45:08;1.45;;;1.20;;
5811;SDS011;2932;52.400;9.558;2022-08-19T14:47:35;1.40;;;0.88;;
5811;SDS011;2932;52.400;9.558;2022-08-19T14:50:00;0.82;;;0.80;;
5811;SDS011;2932;52.400;9.558;2022-08-19T14:52:26;1.25;;;0.80;;
5811;SDS011;2932;52.400;9.558;2022-08-19T14:54:52;0.80;;;0.80;;
5811;SDS011;2932;52.400;9.558;2022-08-19T14:57:18;1.45;;;1.00;;
5811;SDS011;2932;52.400;9.558;2022-08-19T14:59:43;10.68;;;1.27;;
5811;SDS011;2932;52.400;9.558;2022-08-19T15:02:09;1.67;;;0.93;;
5811;SDS011;2932;52.400;9.558;2022-08-19T15:04:34;1.13;;;0.88;;
5811;SDS011;2932;52.400;9.558;2022-08-19T15:07:00;1.00;;;0.90;;
5811;SDS011;2932;52.400;9.558;2022-08-19T15:09:26;1.17;;;1.02;;
5811;SDS011;2932;52.400;9.558;2022-08-19T15:11:51;1.58;;;1.10;;
5811;SDS011;2932;52.400;9.558;2022-08-19T15:14:17;0.90;;;0.90;;
5811;SDS011;2932;52.400;9.558;2022-08-19T15:16:42;1.08;;;0.98;;
5811;SDS011;2932;52.400;9.558;2022-08-19T15:19:08;1.25;;;0.90;;
5811;SDS011;2932;52.400;9.558;2022-08-19T15:21:34;1.08;;;1.00;;
5811;SDS011;2932;52.400;9.558;2022-08-19T15:24:01;4.13;;;0.95;;
5811;SDS011;2932;52.400;9.558;2022-08-19T15:26:27;2.78;;;0.77;;
5811;SDS011;2932;52.400;9.558;2022-08-19T15:28:56;1.00;;;0.82;;
5811;SDS011;2932;52.400;9.558;2022-08-19T15:31:22;1.10;;;0.75;;
5811;SDS011;2932;52.400;9.558;2022-08-19T15:33:47;1.27;;;0.80;;
5811;SDS011;2932;52.400;9.558;2022-08-19T15:36:13;0.70;;;0.70;;
5811;SDS011;2932;52.400;9.558;2022-08-19T15:38:39;0.93;;;0.80;;